Lindsay Nobles — WDI2220 — position and weather

sailwx.info

Track history (hours):
 
Tides and Currents Weather Stations Pressure Air Temp Water Temp Dewpoint Dewpoint Depression Visibility Wind Speed Wind Dir Waves Ship Positions

Lindsay Nobles

Owner: Genesis Marine, Houston, TX. More information available from US FCC via Universal Licensing System and Coast Guard Vessel Documentation Center.

Last reported at 2018-May-14 17:53 UTC. Time now 2018-May-20 15:34 UTC.
Position N 39°12' W 090°36'.

Length 32 m; draft 3 m.

Type: Ship (hazmat cat A). MMSI: 367675910.

Date/timePositionNaut miles runAvg speedWind from/ knotsBaromVisibWave heightAir tempDewpointWater temp
2018-May-14 17:53N 39°12' W 090°36'2 4.6
2018-May-14 17:30N 39°11' W 090°36'2 4.6
2018-May-14 17:00N 39°09' W 090°37'0 0.7
2018-May-14 16:27N 39°08' W 090°37'1 0.7
2018-May-14 15:19N 39°08' W 090°36'1 4.7
2018-May-14 15:00N 39°06' W 090°36'3 4.8
2018-May-14 14:29N 39°04' W 090°35'2 3.6
2018-May-14 14:00N 39°02' W 090°35'2 4.8
2018-May-14 13:30N 38°60' W 090°34'3 5.0
2018-May-14 13:00N 38°58' W 090°32'2 4.2
2018-May-14 12:30N 38°58' W 090°30'2 4.8
2018-May-14 12:00N 38°58' W 090°27'2 4.1
2018-May-14 11:30N 38°58' W 090°24'0 0.0
2018-May-14 11:00N 38°58' W 090°24'0 0.0
2018-May-14 10:30N 38°58' W 090°24'0 0.0
2018-May-14 10:00N 38°58' W 090°24'0 0.3
2018-May-14 09:30N 38°58' W 090°24'2 4.5
2018-May-14 09:00N 38°57' W 090°21'2 4.7
2018-May-14 08:30N 38°55' W 090°19'2 4.9
2018-May-14 08:00N 38°55' W 090°16'1 1.8
2018-May-14 07:30N 38°55' W 090°14'0 0.0
2018-May-14 07:00N 38°55' W 090°14'1 1.2
2018-May-14 06:30N 38°55' W 090°14'2 3.9
2018-May-14 06:00N 38°54' W 090°12'2 4.9
2018-May-14 05:30N 38°52' W 090°09'1 1.1
2018-May-14 05:00N 38°52' W 090°09'1 2.4
2018-May-14 04:30N 38°51' W 090°07'0 1.0
2018-May-14 04:00N 38°51' W 090°07'1 2.5
2018-May-14 03:30N 38°50' W 090°07'3 5.6
2018-May-14 02:57N 38°47' W 090°08'2 4.7
2018-May-14 02:28N 38°45' W 090°09'2 4.3
2018-May-14 02:00N 38°43' W 090°10'1 2.4
2018-May-14 01:30N 38°42' W 090°11'1 2.5
2018-May-14 01:00N 38°41' W 090°11'3 5.3
2018-May-14 00:30N 38°38' W 090°11'  
2018-May-08 14:26N 32°41' W 091°06'2 5.6
2018-May-08 14:00N 32°40' W 091°08'3 5.6
2018-May-08 13:30N 32°37' W 091°09'3 5.9
2018-May-08 13:00N 32°35' W 091°07'3 5.5
2018-May-08 12:25N 32°31' W 091°07'2 5.2
2018-May-08 12:00N 32°29' W 091°07'3 5.5
2018-May-08 11:30N 32°27' W 091°05'3 5.4
2018-May-08 11:00N 32°26' W 091°02'3 5.4
2018-May-08 10:30N 32°24' W 090°60'2 4.9
2018-May-08 10:00N 32°22' W 090°60'3 5.2
2018-May-08 09:30N 32°21' W 090°57'2 4.5
2018-May-08 09:00N 32°20' W 090°54'2 3.8
2018-May-08 08:30N 32°18' W 090°55'2 4.3
2018-May-08 08:00N 32°17' W 090°57'3 5.1
2018-May-08 07:30N 32°15' W 090°59'3 5.6
2018-May-08 07:00N 32°12' W 090°59'2 4.9
2018-May-08 06:30N 32°10' W 090°60'2 4.8
2018-May-08 06:00N 32°08' W 091°01'2 4.3
2018-May-08 05:30N 32°08' W 091°04'3 5.2
2018-May-08 05:00N 32°07' W 091°07'2 4.7
2018-May-08 04:30N 32°05' W 091°05'3 5.5
2018-May-08 03:57N 32°02' W 091°05'58 4.5
2018-May-07 15:06N 31°10' W 091°36'1 5.3
2018-May-07 14:59N 31°10' W 091°36'  
Track history (hours):
 
Tides and Currents Weather Stations Pressure Air Temp Water Temp Dewpoint Dewpoint Depression Visibility Wind Speed Wind Dir Waves Ship Positions

Lindsay Nobles

Owner: Genesis Marine, Houston, TX. More information available from US FCC via Universal Licensing System and Coast Guard Vessel Documentation Center.

Last reported at 2018-May-14 17:53 UTC. Time now 2018-May-20 15:34 UTC.
Position N 39°12' W 090°36'.

Length 32 m; draft 3 m.

Type: Ship (hazmat cat A). MMSI: 367675910.

Date/timePositionNaut miles runAvg speedWind from/ knotsBaromVisibWave heightAir tempDewpointWater temp
2018-May-14 17:53N 39°12' W 090°36'2 4.6
2018-May-14 17:30N 39°11' W 090°36'2 4.6
2018-May-14 17:00N 39°09' W 090°37'0 0.7
2018-May-14 16:27N 39°08' W 090°37'1 0.7
2018-May-14 15:19N 39°08' W 090°36'1 4.7
2018-May-14 15:00N 39°06' W 090°36'3 4.8
2018-May-14 14:29N 39°04' W 090°35'2 3.6
2018-May-14 14:00N 39°02' W 090°35'2 4.8
2018-May-14 13:30N 38°60' W 090°34'3 5.0
2018-May-14 13:00N 38°58' W 090°32'2 4.2
2018-May-14 12:30N 38°58' W 090°30'2 4.8
2018-May-14 12:00N 38°58' W 090°27'2 4.1
2018-May-14 11:30N 38°58' W 090°24'0 0.0
2018-May-14 11:00N 38°58' W 090°24'0 0.0
2018-May-14 10:30N 38°58' W 090°24'0 0.0
2018-May-14 10:00N 38°58' W 090°24'0 0.3
2018-May-14 09:30N 38°58' W 090°24'2 4.5
2018-May-14 09:00N 38°57' W 090°21'2 4.7
2018-May-14 08:30N 38°55' W 090°19'2 4.9
2018-May-14 08:00N 38°55' W 090°16'1 1.8
2018-May-14 07:30N 38°55' W 090°14'0 0.0
2018-May-14 07:00N 38°55' W 090°14'1 1.2
2018-May-14 06:30N 38°55' W 090°14'2 3.9
2018-May-14 06:00N 38°54' W 090°12'2 4.9
2018-May-14 05:30N 38°52' W 090°09'1 1.1
2018-May-14 05:00N 38°52' W 090°09'1 2.4
2018-May-14 04:30N 38°51' W 090°07'0 1.0
2018-May-14 04:00N 38°51' W 090°07'1 2.5
2018-May-14 03:30N 38°50' W 090°07'3 5.6
2018-May-14 02:57N 38°47' W 090°08'2 4.7
2018-May-14 02:28N 38°45' W 090°09'2 4.3
2018-May-14 02:00N 38°43' W 090°10'1 2.4
2018-May-14 01:30N 38°42' W 090°11'1 2.5
2018-May-14 01:00N 38°41' W 090°11'3 5.3
2018-May-14 00:30N 38°38' W 090°11'  
2018-May-08 14:26N 32°41' W 091°06'2 5.6
2018-May-08 14:00N 32°40' W 091°08'3 5.6
2018-May-08 13:30N 32°37' W 091°09'3 5.9
2018-May-08 13:00N 32°35' W 091°07'3 5.5
2018-May-08 12:25N 32°31' W 091°07'2 5.2
2018-May-08 12:00N 32°29' W 091°07'3 5.5
2018-May-08 11:30N 32°27' W 091°05'3 5.4
2018-May-08 11:00N 32°26' W 091°02'3 5.4
2018-May-08 10:30N 32°24' W 090°60'2 4.9
2018-May-08 10:00N 32°22' W 090°60'3 5.2
2018-May-08 09:30N 32°21' W 090°57'2 4.5
2018-May-08 09:00N 32°20' W 090°54'2 3.8
2018-May-08 08:30N 32°18' W 090°55'2 4.3
2018-May-08 08:00N 32°17' W 090°57'3 5.1
2018-May-08 07:30N 32°15' W 090°59'3 5.6
2018-May-08 07:00N 32°12' W 090°59'2 4.9
2018-May-08 06:30N 32°10' W 090°60'2 4.8
2018-May-08 06:00N 32°08' W 091°01'2 4.3
2018-May-08 05:30N 32°08' W 091°04'3 5.2
2018-May-08 05:00N 32°07' W 091°07'2 4.7
2018-May-08 04:30N 32°05' W 091°05'3 5.5
2018-May-08 03:57N 32°02' W 091°05'58 4.5
2018-May-07 15:06N 31°10' W 091°36'1 5.3
2018-May-07 14:59N 31°10' W 091°36'  

Dump ship's entire track history